Time;durP1;ratioP1;P1;durP2;ratioP2;P2;SDS_P1;SDS_P2;PMS_P1;PMS_P2;Temp;Humidity;BMP_temperature;BMP_pressure;BME280_temperature;BME280_humidity;BME280_pressure;Samples;Min_cycle;Max_cycle;Signal;HPM_P1;HPM_P2
2022/11/28 00:01:31;;;;;;;39.92;14.95;;;;;;;11.35;64.70;98830.72;4395625;32;20498;-83
2022/11/28 00:03:57;;;;;;;43.65;16.20;;;;;;;11.27;64.49;98833.56;4395624;32;20144;-83
2022/11/28 00:06:26;;;;;;;40.33;15.20;;;;;;;11.29;62.99;98829.22;4395603;32;20091;-83
2022/11/28 00:08:53;;;;;;;40.63;15.32;;;;;;;10.32;67.07;98835.69;4395571;32;20098;-83
2022/11/28 00:11:20;;;;;;;40.12;15.43;;;;;;;11.16;64.43;98840.81;4395565;32;20086;-83
2022/11/28 00:13:47;;;;;;;;;;;;;;;10.81;66.05;98834.19;4395447;32;20078;-83
2022/11/28 00:16:16;;;;;;;39.38;15.68;;;;;;;10.94;65.24;98831.19;4407012;32;20329;-83
2022/11/28 00:18:43;;;;;;;39.03;15.85;;;;;;;10.95;66.20;98825.16;4395462;32;20102;-83
2022/11/28 00:21:12;;;;;;;41.80;14.93;;;;;;;10.75;67.02;98830.09;4395504;32;20090;-83
2022/11/28 00:23:40;;;;;;;38.85;14.73;;;;;;;9.89;70.55;98834.28;4395387;32;20075;-83
2022/11/28 00:26:12;;;;;;;40.63;14.80;;;;;;;10.48;69.16;98836.06;4395492;32;20099;-83
2022/11/28 00:28:39;;;;;;;44.15;15.65;;;;;;;10.65;68.69;98842.44;4395365;32;20089;-83
2022/11/28 00:31:11;;;;;;;39.00;14.50;;;;;;;11.46;64.82;98836.38;4395316;32;20082;-83
2022/11/28 00:33:38;;;;;;;38.85;15.52;;;;;;;10.84;67.50;98834.09;4395512;32;20083;-83
2022/11/28 00:36:05;;;;;;;;;;;;;;;11.10;65.41;98835.87;4395738;32;20095;-83
2022/11/28 00:38:32;;;;;;;39.38;13.93;;;;;;;11.67;63.54;98833.06;4395402;32;19982;-83
2022/11/28 00:41:06;;;;;;;37.30;13.65;;;;;;;11.62;62.99;98837.56;4395315;32;20086;-83
2022/11/28 00:43:33;;;;;;;42.30;14.90;;;;;;;11.01;66.12;98840.44;4395336;32;20156;-83
2022/11/28 00:46:01;;;;;;;37.78;14.43;;;;;;;11.50;64.18;98830.22;4395324;32;20102;-83
2022/11/28 00:48:28;;;;;;;36.42;14.35;;;;;;;11.63;63.67;98825.47;4395390;32;20152;-83
2022/11/28 00:51:04;;;;;;;36.75;15.38;;;;;;;10.58;67.51;98832.31;4395195;32;20539;-83
2022/11/28 00:53:31;;;;;;;41.13;15.35;;;;;;;10.75;67.57;98822.34;4395337;32;20078;-83
2022/11/28 00:55:58;;;;;;;43.00;15.95;;;;;;;11.21;65.85;98828.63;4395218;32;20094;-83
2022/11/28 00:58:25;;;;;;;38.17;14.30;;;;;;;11.49;64.32;98824.22;4395112;32;20098;-83
2022/11/28 01:00:52;;;;;;;35.47;13.65;;;;;;;11.12;65.75;98824.59;4395118;32;20089;-83
2022/11/28 01:03:19;;;;;;;35.65;15.07;;;;;;;11.39;64.21;98828.00;4395288;32;20078;-83
2022/11/28 01:05:46;;;;;;;41.33;14.43;;;;;;;11.86;62.82;98826.38;4395085;32;20163;-84
2022/11/28 01:08:13;;;;;;;35.42;13.57;;;;;;;11.93;62.17;98827.03;4395227;32;20438;-83
2022/11/28 01:10:42;;;;;;;35.28;13.77;;;;;;;11.80;62.50;98821.44;4395118;32;20108;-83
2022/11/28 01:13:10;;;;;;;34.30;13.73;;;;;;;11.79;62.48;98813.69;4395225;32;20083;-83
2022/11/28 01:15:40;;;;;;;35.85;13.57;;;;;;;12.16;60.49;98818.44;4395188;32;20099;-83
2022/11/28 01:18:07;;;;;;;37.97;13.82;;;;;;;12.37;60.47;98807.28;4395188;32;20152;-83
2022/11/28 01:20:34;;;;;;;37.45;14.52;;;;;;;12.00;60.92;98812.13;4394824;32;20098;-83
2022/11/28 01:23:01;;;;;;;34.28;14.70;;;;;;;12.59;58.88;98809.03;4395104;32;20074;-83
2022/11/28 01:25:28;;;;;;;33.83;14.02;;;;;;;12.38;59.83;98810.72;4394515;32;20095;-83
2022/11/28 01:27:55;;;;;;;36.67;14.02;;;;;;;12.39;59.51;98802.03;4394941;32;20103;-83
2022/11/28 01:30:22;;;;;;;33.40;13.52;;;;;;;12.28;59.87;98804.19;4394738;32;20090;-84
2022/11/28 01:32:49;;;;;;;34.67;13.45;;;;;;;12.13;60.44;98800.44;4395104;32;20087;-83
2022/11/28 01:35:16;;;;;;;34.97;13.95;;;;;;;12.25;59.48;98789.63;4394916;32;20106;-83
2022/11/28 01:37:43;;;;;;;37.05;13.60;;;;;;;11.77;61.16;98793.06;4394915;32;20157;-83
2022/11/28 01:40:12;;;;;;;34.55;14.30;;;;;;;11.87;61.12;98784.13;4393712;32;20086;-84
2022/11/28 01:42:39;;;;;;;39.58;14.48;;;;;;;11.52;62.51;98790.50;4393882;32;20074;-83
2022/11/28 01:45:12;;;;;;;32.95;13.32;;;;;;;11.36;63.26;98785.91;4394915;32;20160;-83
2022/11/28 01:47:40;;;;;;;33.92;13.15;;;;;;;11.82;61.33;98777.44;4394977;32;20160;-83
2022/11/28 01:50:07;;;;;;;38.45;13.82;;;;;;;11.15;64.01;98769.41;4394811;32;20086;-83
2022/11/28 01:52:36;;;;;;;33.08;13.55;;;;;;;10.95;65.69;98770.03;4394922;32;20152;-83
2022/11/28 01:55:04;;;;;;;39.83;14.85;;;;;;;10.78;67.06;98768.03;4394929;32;20113;-83
2022/11/28 01:57:31;;;;;;;35.33;13.60;;;;;;;10.34;69.17;98767.69;4393656;32;20114;-83
2022/11/28 02:00:07;;;;;;;37.03;14.45;;;;;;;10.68;67.90;98757.16;4394758;32;20591;-83
2022/11/28 02:02:40;;;;;;;36.63;12.88;;;;;;;10.54;68.75;98754.19;4393639;32;20100;-83
2022/11/28 02:05:07;;;;;;;39.50;15.68;;;;;;;9.60;73.04;98746.62;4393739;32;20102;-83
2022/11/28 02:07:35;;;;;;;38.47;15.02;;;;;;;10.35;70.84;98741.00;4394738;32;20094;-83
2022/11/28 02:10:05;;;;;;;38.33;14.32;;;;;;;9.66;73.52;98742.13;4393379;32;20433;-83
2022/11/28 02:12:59;;;;;;;39.58;14.25;;;;;;;10.33;71.71;98736.78;4393511;32;20086;-83
2022/11/28 02:15:47;;;;;;;34.63;13.25;;;;;;;10.04;72.36;98729.88;4394821;32;20500;-83
2022/11/28 02:18:46;;;;;;;36.67;14.13;;;;;;;10.05;72.52;98723.84;4394571;32;20116;-83
2022/11/28 02:21:41;;;;;;;37.85;14.48;;;;;;;10.65;69.32;98721.13;4394712;32;20501;-83
2022/11/28 02:24:26;;;;;;;33.95;14.32;;;;;;;10.66;69.40;98720.22;4393409;32;20115;-83
2022/11/28 02:27:07;;;;;;;33.15;12.15;;;;;;;10.00;71.04;98718.81;4394764;32;20090;-83
2022/11/28 02:29:43;;;;;;;33.58;12.88;;;;;;;10.40;70.26;98707.31;4393108;32;20098;-83
2022/11/28 02:32:19;;;;;;;35.60;14.10;;;;;;;10.31;71.24;98715.31;4394586;32;20135;-83
2022/11/28 02:35:13;;;;;;;37.67;13.55;;;;;;;10.71;68.93;98705.44;4394492;32;20552;-83
2022/11/28 02:37:49;;;;;;;34.97;13.02;;;;;;;10.91;68.52;98704.78;4394321;32;20156;-83
2022/11/28 02:40:37;;;;;;;39.67;15.10;;;;;;;10.54;69.29;98699.16;4393307;32;20102;-83
2022/11/28 02:43:23;;;;;;;33.10;14.20;;;;;;;10.83;68.49;98698.16;4393383;32;20086;-83
2022/11/28 02:46:13;;;;;;;35.28;13.55;;;;;;;10.19;70.66;98703.63;4394487;32;20539;-83
2022/11/28 02:48:45;;;;;;;36.63;13.18;;;;;;;10.00;72.45;98690.47;4393249;32;20449;-82
2022/11/28 02:51:23;;;;;;;35.25;13.75;;;;;;;9.86;72.62;98690.00;4394265;32;20086;-83
2022/11/28 02:53:51;;;;;;;32.28;13.18;;;;;;;9.88;73.02;98698.53;4394429;32;20227;-83
2022/11/28 02:56:17;;;;;;;43.65;16.42;;;;;;;9.74;73.73;98691.22;4394349;32;20149;-83
2022/11/28 02:58:44;;;;;;;45.65;17.65;;;;;;;9.91;73.28;98692.47;4394023;32;20113;-84
2022/11/28 03:01:22;;;;;;;47.42;18.17;;;;;;;9.74;74.33;98687.81;4394136;32;20492;-83
2022/11/28 03:04:04;;;;;;;45.17;15.73;;;;;;;9.95;73.92;98692.31;4392965;32;20105;-83
2022/11/28 03:06:44;;;;;;;46.03;16.02;;;;;;;10.47;71.41;98679.59;4394140;32;20105;-83
2022/11/28 03:09:30;;;;;;;37.47;13.70;;;;;;;10.58;71.09;98670.59;4394076;32;20425;-83
2022/11/28 03:12:30;;;;;;;41.55;14.40;;;;;;;10.85;69.88;98671.44;4394058;32;20086;-83
2022/11/28 03:15:03;;;;;;;35.80;13.50;;;;;;;10.44;70.35;98670.22;4405423;32;20152;-83
2022/11/28 03:17:59;;;;;;;41.17;13.43;;;;;;;10.77;69.05;98675.16;4392873;32;20078;-83
2022/11/28 03:20:47;;;;;;;34.47;13.62;;;;;;;11.07;67.63;98668.97;4393831;32;20094;-83
2022/11/28 03:23:38;;;;;;;34.42;12.68;;;;;;;11.11;66.87;98670.53;4393899;32;20098;-83
2022/11/28 03:26:17;;;;;;;36.60;13.90;;;;;;;11.33;65.77;98664.59;4393914;32;20437;-83
2022/11/28 03:28:53;;;;;;;37.28;13.95;;;;;;;10.52;69.54;98659.63;4392530;32;20536;-83
2022/11/28 03:31:27;;;;;;;36.60;13.57;;;;;;;10.41;68.97;98653.06;4392520;32;20172;-83
2022/11/28 03:33:55;;;;;;;34.35;13.23;;;;;;;9.80;72.24;98654.97;4393736;32;20095;-83
2022/11/28 03:36:29;;;;;;;32.85;13.55;;;;;;;9.47;74.27;98648.25;4392657;32;20152;-83
2022/11/28 03:39:04;;;;;;;36.25;13.80;;;;;;;9.65;73.57;98646.84;4392466;32;20523;-83
2022/11/28 03:41:38;;;;;;;37.90;13.68;;;;;;;9.76;73.39;98648.22;4392535;32;20107;-83
2022/11/28 03:44:08;;;;;;;37.47;14.00;;;;;;;9.33;73.40;98650.34;4392423;32;20110;-83
2022/11/28 03:46:38;;;;;;;37.13;13.77;;;;;;;8.13;78.18;98637.97;4393654;32;20094;-83
2022/11/28 03:49:08;;;;;;;37.50;14.32;;;;;;;8.18;78.32;98639.56;4392723;32;20103;-83
2022/11/28 03:51:45;;;;;;;36.75;13.95;;;;;;;8.27;77.89;98635.06;4394624;32;20103;-83
2022/11/28 03:54:17;;;;;;;37.70;14.45;;;;;;;8.06;79.50;98630.41;4394597;32;20102;-84
2022/11/28 03:57:07;;;;;;;41.03;14.82;;;;;;;8.33;79.36;98634.06;4395694;32;20150;-83
2022/11/28 03:59:37;;;;;;;36.30;14.00;;;;;;;7.75;81.94;98625.97;4395695;32;20087;-83
2022/11/28 04:02:09;;;;;;;38.05;14.40;;;;;;;7.69;83.23;98630.41;4395669;32;20106;-83
2022/11/28 04:04:53;;;;;;;41.67;14.87;;;;;;;7.66;82.96;98631.34;4395711;32;20106;-83
2022/11/28 04:07:41;;;;;;;33.42;13.43;;;;;;;7.70;81.98;98632.09;4395873;32;20090;-83
2022/11/28 04:10:20;;;;;;;34.90;12.88;;;;;;;8.18;79.40;98626.72;4394328;32;20095;-83
2022/11/28 04:12:52;;;;;;;42.30;14.00;;;;;;;7.08;83.87;98632.50;4395586;32;20141;-83
2022/11/28 04:16:07;;;;;;;38.88;12.80;;;;;;;7.36;83.20;98632.81;4395498;32;20090;-83
2022/11/28 04:18:59;;;;;;;40.12;13.62;;;;;;;8.27;78.59;98629.06;4391539;32;20090;-83
2022/11/28 04:21:34;;;;;;;38.58;14.98;;;;;;;8.27;77.64;98640.19;4394521;32;20105;-83
2022/11/28 04:24:07;;;;;;;36.17;13.77;;;;;;;8.55;76.80;98635.25;4394301;32;20094;-83
2022/11/28 04:26:38;;;;;;;38.53;13.55;;;;;;;8.17;77.91;98638.72;4395610;32;20097;-83
2022/11/28 04:29:09;;;;;;;38.47;13.18;;;;;;;8.99;74.75;98646.13;4394128;32;20229;-83
2022/11/28 04:31:37;;;;;;;38.40;14.18;;;;;;;8.69;74.35;98648.59;4394221;32;20113;-83
2022/11/28 04:34:06;;;;;;;41.83;14.87;;;;;;;8.88;73.74;98645.56;4394280;32;20107;-83
2022/11/28 04:36:35;;;;;;;38.88;14.38;;;;;;;8.65;74.70;98647.00;4395498;32;20143;-83
2022/11/28 04:39:05;;;;;;;36.38;14.20;;;;;;;9.42;72.46;98648.34;4394168;32;20095;-83
2022/11/28 04:41:41;;;;;;;33.47;12.95;;;;;;;9.55;70.36;98654.00;4394475;32;20105;-83
2022/11/28 04:44:12;;;;;;;35.97;13.62;;;;;;;9.77;68.98;98649.06;4394148;32;20099;-83
2022/11/28 04:46:44;;;;;;;37.65;13.82;;;;;;;8.44;74.32;98641.56;4394403;32;20106;-83
2022/11/28 04:49:12;;;;;;;41.40;13.73;;;;;;;8.92;72.26;98650.56;4395300;32;20156;-83
2022/11/28 04:51:52;;;;;;;38.38;14.20;;;;;;;8.02;75.59;98654.50;4394157;32;20086;-83
2022/11/28 04:54:22;;;;;;;36.95;13.62;;;;;;;8.27;76.64;98652.19;4395354;32;20095;-83
2022/11/28 04:56:53;;;;;;;36.17;12.90;;;;;;;7.77;78.40;98647.38;4395347;32;20107;-83
2022/11/28 04:59:21;;;;;;;40.65;14.32;;;;;;;8.18;77.02;98647.28;4395221;32;20090;-83
2022/11/28 05:01:48;;;;;;;33.90;12.88;;;;;;;8.68;73.91;98639.19;4394248;32;20078;-83
2022/11/28 05:04:16;;;;;;;36.03;13.60;;;;;;;9.29;71.06;98644.44;4394132;32;20126;-83
2022/11/28 05:06:44;;;;;;;36.38;13.15;;;;;;;8.21;75.54;98639.50;4395246;32;20113;-83
2022/11/28 05:09:12;;;;;;;35.08;12.15;;;;;;;8.69;73.89;98635.75;4395174;32;20104;-83
2022/11/28 05:11:39;;;;;;;35.03;14.00;;;;;;;8.35;74.92;98635.75;4395168;32;20101;-83
2022/11/28 05:14:06;;;;;;;37.15;13.90;;;;;;;8.35;74.31;98637.47;4395084;32;20113;-83
2022/11/28 05:16:33;;;;;;;32.80;12.55;;;;;;;8.36;74.92;98642.59;4395186;32;20082;-83
2022/11/28 05:19:00;;;;;;;36.78;12.45;;;;;;;7.56;77.27;98629.84;4394879;32;20086;-83
2022/11/28 05:21:27;;;;;;;39.85;13.35;;;;;;;7.49;79.38;98641.12;4395105;32;20440;-83
2022/11/28 05:23:53;;;;;;;;;;;;;;;8.37;75.70;98641.69;4395363;32;20090;-83
2022/11/28 05:26:20;;;;;;;38.78;13.10;;;;;;;8.36;75.34;98646.88;4395187;32;20032;-83
2022/11/28 05:28:49;;;;;;;36.85;11.95;;;;;;;8.36;75.59;98647.72;4394815;32;20082;-83
2022/11/28 05:31:19;;;;;;;42.78;14.05;;;;;;;7.99;77.05;98650.28;4395022;32;20148;-83
2022/11/28 05:33:46;;;;;;;37.33;13.38;;;;;;;8.08;77.42;98650.09;4394958;32;20098;-83
2022/11/28 05:36:14;;;;;;;38.22;13.05;;;;;;;8.32;75.31;98640.94;4395058;32;20090;-83
2022/11/28 05:38:41;;;;;;;35.95;12.40;;;;;;;8.01;76.64;98637.41;4394906;32;20441;-83
2022/11/28 05:41:16;;;;;;;38.17;13.02;;;;;;;7.91;76.92;98641.91;4394838;32;20169;-83
2022/11/28 05:43:43;;;;;;;34.95;11.45;;;;;;;7.94;76.73;98646.97;4395010;32;20113;-83
2022/11/28 05:46:10;;;;;;;;;;;;;;;7.53;78.43;98643.56;4395371;32;20098;-83
2022/11/28 05:48:37;;;;;;;37.17;12.02;;;;;;;7.78;77.68;98641.34;4395047;32;19989;-84
2022/11/28 05:51:04;;;;;;;41.28;13.15;;;;;;;8.24;75.26;98648.00;4394936;32;20133;-83
2022/11/28 05:53:31;;;;;;;28.62;11.40;;;;;;;8.49;72.17;98645.69;4394863;32;20101;-83
2022/11/28 05:55:58;;;;;;;35.92;12.60;;;;;;;8.18;74.02;98640.41;4394914;32;20106;-83
2022/11/28 05:58:25;;;;;;;40.05;13.13;;;;;;;8.11;75.07;98639.72;4394809;32;20086;-83
2022/11/28 06:00:52;;;;;;;;;;;;;;;7.66;76.48;98636.47;4394937;32;20087;-83
2022/11/28 06:03:19;;;;;;;39.70;13.13;;;;;;;7.69;76.45;98638.97;4394993;32;19974;-83
2022/11/28 06:05:46;;;;;;;36.38;12.90;;;;;;;8.47;73.46;98644.87;4394878;32;20144;-83
2022/11/28 06:08:13;;;;;;;34.47;11.90;;;;;;;8.93;70.19;98643.69;4394854;32;20080;-83
2022/11/28 06:10:40;;;;;;;31.95;12.63;;;;;;;8.40;72.95;98644.22;4394654;32;20078;-83
2022/11/28 06:13:07;;;;;;;41.30;12.88;;;;;;;8.30;72.90;98641.88;4394409;32;20110;-83
2022/11/28 06:15:34;;;;;;;32.92;11.98;;;;;;;7.48;78.11;98644.56;4394786;32;20180;-83
2022/11/28 06:18:04;;;;;;;32.22;12.10;;;;;;;8.12;74.66;98641.41;4394660;32;20169;-83
2022/11/28 06:20:34;;;;;;;33.35;11.05;;;;;;;8.92;71.14;98644.59;4394691;32;20082;-83
2022/11/28 06:23:00;;;;;;;31.42;11.85;;;;;;;8.25;74.10;98638.53;4394659;32;20102;-83
2022/11/28 06:25:28;;;;;;;33.40;11.68;;;;;;;8.40;72.99;98644.22;4394832;32;20112;-83
2022/11/28 06:27:55;;;;;;;34.85;12.45;;;;;;;7.93;74.83;98641.88;4394660;32;20148;-83
2022/11/28 06:30:21;;;;;;;;;;;;;;;7.34;77.15;98646.56;4394482;32;20161;-83
2022/11/28 06:32:48;;;;;;;29.20;10.55;;;;;;;7.93;74.70;98640.12;4394746;32;20009;-83
2022/11/28 06:35:15;;;;;;;31.87;11.43;;;;;;;8.23;73.24;98641.16;4394513;32;20107;-83
2022/11/28 06:37:42;;;;;;;32.45;11.15;;;;;;;8.72;70.55;98631.41;4394489;32;20151;-83
2022/11/28 06:40:09;;;;;;;;;;;;;;;8.59;70.90;98636.00;4394641;32;20484;-83
2022/11/28 06:42:36;;;;;;;32.15;11.57;;;;;;;8.97;67.54;98630.72;4394573;32;19977;-83
2022/11/28 06:45:04;;;;;;;28.80;10.18;;;;;;;9.01;67.59;98633.22;4394434;32;20102;-83
2022/11/28 06:47:31;;;;;;;33.05;11.73;;;;;;;8.81;67.10;98628.59;4394424;32;20086;-83
2022/11/28 06:49:58;;;;;;;28.15;11.02;;;;;;;8.42;69.89;98630.47;4394182;32;20082;-83
2022/11/28 06:52:25;;;;;;;34.60;11.07;;;;;;;7.87;71.72;98626.56;4394367;32;20476;-84
2022/11/28 06:54:52;;;;;;;30.52;11.65;;;;;;;7.95;71.55;98640.09;4393124;32;20106;-84
2022/11/28 06:57:19;;;;;;;31.65;11.12;;;;;;;8.00;73.23;98635.72;4393147;32;20098;-84
2022/11/28 06:59:47;;;;;;;;;;;;;;;8.09;72.08;98638.09;4394310;32;20087;-84
2022/11/28 07:02:13;;;;;;;32.63;11.18;;;;;;;7.75;75.24;98636.25;4394310;32;20313;-84
2022/11/28 07:04:40;;;;;;;;;;;;;;;7.07;78.88;98638.53;4394441;32;20121;-83
2022/11/28 07:07:07;;;;;;;32.30;11.15;;;;;;;6.72;81.68;98631.50;4394403;32;19981;-83
2022/11/28 07:09:40;;;;;;;30.05;10.38;;;;;;;7.52;78.40;98636.75;4394024;32;20090;-82
2022/11/28 07:12:07;;;;;;;35.20;11.98;;;;;;;7.30;78.59;98635.50;4393980;32;20102;-82
2022/11/28 07:14:34;;;;;;;;;;;;;;;7.12;79.72;98638.44;4405765;32;20125;-81
2022/11/28 07:17:01;;;;;;;34.30;11.63;;;;;;;7.21;79.40;98638.25;4394016;32;20321;-81
2022/11/28 07:19:28;;;;;;;36.67;12.68;;;;;;;6.67;81.10;98640.97;4393491;32;20467;-82
2022/11/28 07:21:55;;;;;;;29.40;11.75;;;;;;;6.70;80.94;98643.50;4393908;32;20102;-81
2022/11/28 07:24:22;;;;;;;;;;;;;;;5.72;85.47;98647.56;4395017;32;20095;-81
2022/11/28 07:26:48;;;;;;;36.03;12.73;;;;;;;6.58;81.37;98641.12;4395876;32;19970;-81
2022/11/28 07:29:17;;;;;;;34.85;11.35;;;;;;;6.25;82.36;98643.38;4390612;32;153593;-81
2022/11/28 07:31:44;;;;;;;34.10;12.05;;;;;;;5.56;85.99;98642.69;4394752;32;20107;-83
2022/11/28 07:34:11;;;;;;;38.47;12.15;;;;;;;6.43;82.93;98638.84;4395643;32;20094;-84
2022/11/28 07:36:38;;;;;;;31.60;10.88;;;;;;;6.41;82.25;98640.59;4395818;32;20078;-83
2022/11/28 07:39:07;;;;;;;;;;;;;;;7.00;78.76;98644.63;4395616;32;20078;-83
2022/11/28 07:41:34;;;;;;;29.65;10.55;;;;;;;7.19;77.35;98640.00;4396985;32;19995;-80
2022/11/28 07:44:02;;;;;;;29.23;10.40;;;;;;;7.25;76.77;98637.34;4395689;32;20098;-84
2022/11/28 07:46:30;;;;;;;29.27;8.95;;;;;;;7.60;75.68;98630.63;4397156;32;20062;-84
2022/11/28 07:48:57;;;;;;;28.50;10.88;;;;;;;7.13;74.43;98635.84;4398278;32;20433;-83
2022/11/28 07:51:26;;;;;;;29.80;9.15;;;;;;;7.28;76.13;98638.97;4398463;32;20095;-82
2022/11/28 07:53:53;;;;;;;32.08;11.23;;;;;;;7.18;75.45;98641.72;4396674;32;20113;-82
2022/11/28 07:56:23;;;;;;;30.98;11.10;;;;;;;7.22;74.00;98640.78;4401446;32;20148;-82
2022/11/28 07:58:50;;;;;;;29.45;10.27;;;;;;;6.96;75.58;98637.88;4404286;32;20055;-82
2022/11/28 08:01:18;;;;;;;;;;;;;;;7.32;72.86;98640.59;4401581;32;20152;-82
2022/11/28 08:03:46;;;;;;;29.67;10.45;;;;;;;6.99;73.64;98642.09;4400405;32;19981;-82
2022/11/28 08:06:17;;;;;;;28.75;11.68;;;;;;;7.31;71.88;98631.22;4400380;32;20054;-82
2022/11/28 08:08:45;;;;;;;30.65;10.27;;;;;;;6.98;72.55;98633.56;4400746;32;20108;-82
2022/11/28 08:11:13;;;;;;;33.05;11.82;;;;;;;7.97;70.19;98631.47;4404804;32;20109;-82
2022/11/28 08:13:40;;;;;;;32.05;12.27;;;;;;;8.16;68.45;98621.63;4403472;32;20094;-81
2022/11/28 08:16:17;;;;;;;;;;;;;;;7.65;70.62;98629.63;4405604;32;20125;-83
2022/11/28 08:18:44;;;;;;;28.67;11.40;;;;;;;7.05;72.34;98632.59;4399864;32;20076;-83
2022/11/28 08:21:19;;;;;;;30.33;11.50;;;;;;;7.73;70.82;98626.91;4398458;32;20082;-84
2022/11/28 08:23:46;;;;;;;29.77;11.68;;;;;;;6.46;75.45;98626.81;4399076;32;20067;-82
2022/11/28 08:26:15;;;;;;;30.65;11.65;;;;;;;6.77;75.79;98633.97;4399929;32;20066;-82
2022/11/28 08:28:42;;;;;;;32.72;10.88;;;;;;;7.17;73.61;98634.91;4399037;32;20086;-82
2022/11/28 08:31:13;;;;;;;30.83;12.93;;;;;;;7.65;70.65;98634.75;4400108;32;20161;-81
2022/11/28 08:33:41;;;;;;;32.58;11.25;;;;;;;7.50;71.32;98635.09;4402464;32;20081;-83
2022/11/28 08:36:10;;;;;;;29.92;11.68;;;;;;;6.34;76.51;98632.16;4399288;32;20074;-83
2022/11/28 08:38:37;;;;;;;31.27;11.40;;;;;;;6.91;75.31;98642.25;4396086;32;20086;-83
2022/11/28 08:41:07;;;;;;;32.35;11.27;;;;;;;7.32;71.56;98635.47;4398464;32;20071;-83
2022/11/28 08:43:34;;;;;;;29.70;10.40;;;;;;;6.35;75.65;98626.97;4399268;32;20114;-82
2022/11/28 08:46:01;;;;;;;30.40;10.55;;;;;;;6.57;75.33;98629.19;4399827;32;20442;-82
2022/11/28 08:48:29;;;;;;;30.70;10.55;;;;;;;6.28;76.27;98625.41;4394640;32;20130;-82
2022/11/28 08:50:56;;;;;;;34.25;12.15;;;;;;;6.36;75.59;98625.28;4396841;32;20111;-82
2022/11/28 08:53:23;;;;;;;32.63;12.43;;;;;;;6.36;76.99;98631.25;4400157;32;20132;-82
2022/11/28 08:55:50;;;;;;;36.60;12.05;;;;;;;6.18;77.22;98626.44;4397362;32;20465;-81
2022/11/28 08:58:16;;;;;;;30.83;12.55;;;;;;;6.33;77.06;98625.31;4400947;32;20062;-80
2022/11/28 09:00:43;;;;;;;;;;;;;;;6.38;76.59;98626.97;4395214;32;20472;-81
2022/11/28 09:03:15;;;;;;;28.00;11.02;;;;;;;5.81;79.32;98619.25;4395097;32;19992;-81
2022/11/28 09:05:44;;;;;;;30.23;11.02;;;;;;;5.37;81.69;98630.09;4395351;32;20742;-82
2022/11/28 09:08:16;;;;;;;32.28;12.60;;;;;;;5.74;80.93;98629.59;4395284;32;20108;-82
2022/11/28 09:10:44;;;;;;;33.78;11.98;;;;;;;5.60;80.40;98618.72;4393674;32;20094;-82
2022/11/28 09:13:12;;;;;;;35.90;12.27;;;;;;;5.73;81.25;98623.63;4395112;32;20106;-81
2022/11/28 09:15:40;;;;;;;32.83;11.63;;;;;;;6.12;79.03;98612.88;4395120;32;20078;-81
2022/11/28 09:18:07;;;;;;;36.78;14.63;;;;;;;5.89;79.92;98624.28;4394647;32;20086;-81
2022/11/28 09:20:34;;;;;;;33.10;12.27;;;;;;;6.24;79.63;98620.34;4395748;32;20164;-82
2022/11/28 09:23:01;;;;;;;32.30;11.63;;;;;;;6.29;79.00;98614.28;4395409;32;20094;-79
2022/11/28 09:25:28;;;;;;;32.03;13.02;;;;;;;6.56;77.00;98604.41;4394759;32;20086;-80
2022/11/28 09:27:55;;;;;;;;;;;;;;;6.11;78.83;98609.47;4395271;32;20508;-79
2022/11/28 09:30:22;;;;;;;33.92;12.13;;;;;;;6.29;79.46;98603.19;4394703;32;19982;-78
2022/11/28 09:32:49;;;;;;;31.12;12.10;;;;;;;6.51;77.37;98581.44;4394543;32;20142;-77
2022/11/28 09:35:16;;;;;;;36.00;13.40;;;;;;;6.64;77.76;98592.31;4394939;32;20452;-78
2022/11/28 09:37:43;;;;;;;36.83;14.55;;;;;;;6.46;77.73;98590.06;4394963;32;20100;-77
2022/11/28 09:40:27;;;;;;;33.70;13.30;;;;;;;6.09;79.66;98593.28;4393323;32;20103;-78
2022/11/28 09:42:55;;;;;;;29.63;11.68;;;;;;;6.14;79.24;98588.06;4394993;32;20098;-78
2022/11/28 09:45:23;;;;;;;33.08;12.27;;;;;;;6.82;76.83;98597.13;4394683;32;20082;-79
2022/11/28 09:48:21;;;;;;;33.33;13.65;;;;;;;6.78;76.32;98595.47;4392731;32;20074;-79
2022/11/28 09:50:51;;;;;;;41.83;15.05;;;;;;;7.01;74.65;98594.16;4394861;32;20164;-79
2022/11/28 09:53:26;;;;;;;28.42;10.90;;;;;;;6.73;76.42;98589.59;4394597;32;20094;-78
2022/11/28 09:56:07;;;;;;;30.35;13.38;;;;;;;7.24;74.37;98592.00;4393764;32;20082;-78
2022/11/28 09:58:50;;;;;;;32.00;13.45;;;;;;;7.17;74.78;98590.44;4391601;32;20591;-79
2022/11/28 10:01:17;;;;;;;34.58;14.43;;;;;;;6.47;77.45;98584.91;4377279;32;20152;-79
2022/11/28 10:03:44;;;;;;;;;;;;;;;7.14;75.62;98587.94;4394054;32;20144;-78
2022/11/28 10:06:24;;;;;;;32.28;13.05;;;;;;;6.91;74.93;98576.41;4394142;32;19982;-76
2022/11/28 10:09:09;;;;;;;30.90;13.38;;;;;;;7.20;73.53;98575.81;4381285;32;20358;-81
2022/11/28 10:11:48;;;;;;;33.35;13.27;;;;;;;6.38;78.57;98572.28;4394822;32;20165;-79
2022/11/28 10:14:37;;;;;;;34.10;14.30;;;;;;;7.09;74.79;98566.66;4393839;32;20099;-79
2022/11/28 10:17:26;;;;;;;34.05;12.52;;;;;;;6.86;76.19;98567.94;4394862;32;20106;-80
2022/11/28 10:20:00;;;;;;;32.25;13.62;;;;;;;6.48;78.38;98567.81;4378650;32;20074;-78
2022/11/28 10:22:49;;;;;;;33.20;13.13;;;;;;;6.90;76.29;98561.88;4381096;32;20102;-79
2022/11/28 10:25:20;;;;;;;33.30;14.07;;;;;;;6.75;75.35;98549.38;4394636;32;20156;-78
2022/11/28 10:27:47;;;;;;;32.03;13.07;;;;;;;6.27;78.58;98554.53;4380782;32;20090;-80
2022/11/28 10:30:20;;;;;;;30.52;11.65;;;;;;;6.25;79.20;98551.13;4393837;32;20145;-78
2022/11/28 10:32:53;;;;;;;30.58;12.82;;;;;;;6.81;75.82;98551.81;4394547;32;20156;-79
2022/11/28 10:35:31;;;;;;;31.25;12.05;;;;;;;7.30;72.90;98547.38;4394086;32;20682;-79
2022/11/28 10:37:58;;;;;;;26.48;10.93;;;;;;;7.53;71.98;98542.59;4380913;32;20144;-78
2022/11/28 10:40:30;;;;;;;27.52;12.20;;;;;;;6.93;73.37;98535.34;4394232;32;20086;-78
2022/11/28 10:43:31;;;;;;;36.05;13.35;;;;;;;7.27;71.80;98540.59;4394301;32;20453;-78
2022/11/28 10:46:20;;;;;;;25.48;9.90;;;;;;;7.33;72.56;98539.59;4394479;32;20085;-79
2022/11/28 10:49:05;;;;;;;31.77;13.62;;;;;;;7.91;69.25;98535.72;4394214;32;20125;-79
2022/11/28 10:51:47;;;;;;;29.87;12.40;;;;;;;7.30;71.29;98537.13;4380572;32;20197;-80
2022/11/28 10:54:38;;;;;;;25.27;9.32;;;;;;;7.97;68.99;98528.69;4394030;32;20090;-79
2022/11/28 10:57:19;;;;;;;20.90;9.48;;;;;;;8.10;67.62;98526.69;4394319;32;20251;-80
2022/11/28 11:00:05;;;;;;;28.60;11.95;;;;;;;7.92;69.55;98525.41;4395644;32;20111;-81
2022/11/28 11:02:48;;;;;;;30.10;12.27;;;;;;;8.02;68.67;98519.16;4382092;32;20425;-82
2022/11/28 11:05:20;;;;;;;24.27;9.75;;;;;;;7.46;70.10;98523.06;4396093;32;20091;-83
2022/11/28 11:07:59;;;;;;;25.50;9.50;;;;;;;7.78;69.92;98509.50;4396081;32;20090;-83
2022/11/28 11:10:34;;;;;;;30.02;12.77;;;;;;;7.87;68.96;98513.53;4382339;32;20102;-82
2022/11/28 11:13:13;;;;;;;28.08;11.73;;;;;;;8.00;68.62;98514.94;4396010;32;20511;-79
2022/11/28 11:15:41;;;;;;;26.67;11.15;;;;;;;7.93;67.87;98506.53;4382396;32;20102;-80
2022/11/28 11:18:25;;;;;;;24.37;9.93;;;;;;;8.43;66.52;98503.59;4395497;32;20138;-79
2022/11/28 11:21:15;;;;;;;25.88;10.60;;;;;;;8.93;64.34;98504.72;4395730;32;20527;-81
2022/11/28 11:23:43;;;;;;;28.35;11.05;;;;;;;8.80;64.23;98503.41;4394710;32;20091;-81
2022/11/28 11:26:25;;;;;;;28.50;10.63;;;;;;;7.71;68.64;98498.50;4380855;32;20095;-80
2022/11/28 11:28:52;;;;;;;27.67;10.50;;;;;;;8.42;67.40;98500.16;4395062;32;20152;-80
2022/11/28 11:31:28;;;;;;;33.53;12.75;;;;;;;8.52;67.09;98495.62;4381422;32;20109;-81
2022/11/28 11:34:11;;;;;;;30.12;12.60;;;;;;;7.92;69.24;98488.59;4381806;32;20112;-81
2022/11/28 11:36:38;;;;;;;33.85;14.40;;;;;;;8.77;65.46;98491.47;4381889;32;20158;-81
2022/11/28 11:39:27;;;;;;;27.08;12.57;;;;;;;8.49;66.77;98488.81;4395413;32;20107;-80
2022/11/28 11:42:24;;;;;;;28.73;12.85;;;;;;;8.96;64.55;98489.22;4395752;32;20094;-80
2022/11/28 11:44:51;;;;;;;29.15;12.80;;;;;;;9.13;63.97;98486.97;4395326;32;20091;-80
2022/11/28 11:47:18;;;;;;;28.65;12.32;;;;;;;8.93;64.48;98476.41;4395717;32;20090;-81
2022/11/28 11:49:47;;;;;;;30.98;12.65;;;;;;;8.89;64.64;98475.69;4381983;32;20114;-80
2022/11/28 11:52:25;;;;;;;29.83;12.82;;;;;;;8.83;65.99;98477.59;4381730;32;20143;-80